Time;durP1;ratioP1;P1;durP2;ratioP2;P2;SDS_P1;SDS_P2;PMS_P1;PMS_P2;Temp;Humidity;BMP_temperature;BMP_pressure;BME280_temperature;BME280_humidity;BME280_pressure;Samples;Min_cycle;Max_cycle;Signal;HPM_P1;HPM_P2
2022/04/19 00:02:13;;;;;;;2.10;1.40;;;6.20;99.90;;;;;;5045159;28;20274;-84
2022/04/19 00:04:51;;;;;;;1.45;1.33;;;6.20;99.90;;;;;;5035142;28;20265;-86
2022/04/19 00:07:17;;;;;;;3.42;1.50;;;;;;;;;;5036305;28;20193;-84
2022/04/19 00:09:43;;;;;;;6.30;1.90;;;;;;;;;;5032847;28;20901;-84
2022/04/19 00:12:09;;;;;;;4.35;1.95;;;5.90;99.90;;;;;;5049835;28;20448;-85
2022/04/19 00:14:35;;;;;;;2.07;1.67;;;;;;;;;;5032164;28;20289;-84
2022/04/19 00:17:00;;;;;;;2.30;1.50;;;5.90;99.90;;;;;;5032619;28;20427;-83
2022/04/19 00:19:27;;;;;;;2.27;1.43;;;5.80;99.90;;;;;;5027534;28;20178;-82
2022/04/19 00:21:53;;;;;;;3.88;1.80;;;5.60;99.90;;;;;;5026583;28;20205;-84
2022/04/19 00:24:18;;;;;;;2.50;1.63;;;;;;;;;;5046130;28;20213;-84
2022/04/19 00:26:44;;;;;;;4.13;1.90;;;;;;;;;;5032076;28;20181;-82
2022/04/19 00:29:10;;;;;;;3.57;2.40;;;;;;;;;;5046997;28;20896;-84
2022/04/19 00:31:36;;;;;;;5.77;1.77;;;5.80;99.90;;;;;;5045893;28;20478;-82
2022/04/19 00:34:01;;;;;;;3.30;1.50;;;5.80;99.90;;;;;;5042618;28;20440;-82
2022/04/19 00:36:28;;;;;;;4.20;2.97;;;5.80;99.90;;;;;;5027654;28;20588;-82
2022/04/19 00:38:54;;;;;;;3.85;2.90;;;6.80;99.90;;;;;;5051991;28;20661;-86
2022/04/19 00:41:20;;;;;;;5.87;2.23;;;;;;;;;;5044827;28;20194;-86
2022/04/19 00:43:45;;;;;;;3.50;2.50;;;5.80;99.90;;;;;;5033882;28;20216;-83
2022/04/19 00:46:11;;;;;;;4.77;3.10;;;5.60;99.90;;;;;;5031552;28;20443;-85
2022/04/19 00:48:37;;;;;;;4.60;3.00;;;5.80;99.90;;;;;;5045901;28;20182;-83
2022/04/19 00:51:04;;;;;;;4.47;2.37;;;5.50;99.90;;;;;;5046130;28;20216;-83
2022/04/19 00:53:30;;;;;;;2.25;2.08;;;5.50;99.90;;;;;;5032333;28;20447;-80
2022/04/19 00:55:57;;;;;;;5.00;2.40;;;5.40;99.90;;;;;;5045627;28;20189;-82
2022/04/19 00:58:23;;;;;;;4.68;3.30;;;5.30;99.90;;;;;;5043337;28;20583;-84
2022/04/19 01:00:50;;;;;;;7.67;5.17;;;5.20;99.90;;;;;;5029902;28;20247;-86
2022/04/19 01:03:25;;;;;;;8.20;5.00;;;5.10;99.90;;;;;;5034260;28;20564;-87
2022/04/19 01:05:55;;;;;;;6.40;4.20;;;5.10;99.90;;;;;;5047356;28;20173;-86
2022/04/19 01:08:21;;;;;;;4.38;2.63;;;;;;;;;;5035875;28;20170;-86
2022/04/19 01:10:48;;;;;;;3.53;2.00;;;5.10;99.90;;;;;;5029301;28;20193;-84
2022/04/19 01:13:17;;;;;;;2.60;2.17;;;5.10;99.90;;;;;;5029728;28;20539;-85
2022/04/19 01:15:48;;;;;;;24.48;3.85;;;4.80;99.90;;;;;;5047608;28;20177;-85
2022/04/19 01:18:17;;;;;;;5.30;2.42;;;5.00;99.90;;;;;;5029636;28;20185;-84
2022/04/19 01:20:43;;;;;;;5.95;1.95;;;5.00;99.90;;;;;;5035679;28;20189;-84
2022/04/19 01:23:08;;;;;;;6.70;2.20;;;5.00;99.90;;;;;;5030954;28;20266;-83
2022/04/19 01:25:34;;;;;;;2.40;1.93;;;4.90;99.90;;;;;;5044070;28;20591;-82
2022/04/19 01:28:03;;;;;;;2.33;2.00;;;;;;;;;;5041976;28;20189;-80
2022/04/19 01:30:31;;;;;;;3.58;2.20;;;4.90;99.90;;;;;;5042088;28;20575;-81
2022/04/19 01:32:57;;;;;;;3.42;2.15;;;4.90;99.90;;;;;;5040108;28;20754;-83
2022/04/19 01:35:23;;;;;;;4.47;2.92;;;4.80;99.90;;;;;;5031929;28;21176;-81
2022/04/19 01:37:50;;;;;;;2.80;2.03;;;4.90;99.90;;;;;;5028435;28;20276;-81
2022/04/19 01:40:16;;;;;;;5.32;2.25;;;4.80;99.90;;;;;;5045100;28;20899;-83
2022/04/19 01:42:53;;;;;;;3.13;2.88;;;4.80;99.90;;;;;;5042494;28;20189;-82
2022/04/19 01:45:19;;;;;;;2.90;2.00;;;4.70;99.90;;;;;;5043092;28;20194;-83
2022/04/19 01:47:45;;;;;;;3.67;2.00;;;4.70;99.90;;;;;;5036052;28;20187;-82
2022/04/19 01:50:13;;;;;;;6.30;3.37;;;4.60;99.90;;;;;;5024424;28;20193;-82
2022/04/19 01:52:40;;;;;;;4.10;2.85;;;4.70;99.90;;;;;;5040939;28;20432;-81
2022/04/19 01:55:07;;;;;;;2.72;1.98;;;4.70;99.90;;;;;;5022871;28;20174;-84
2022/04/19 01:57:33;;;;;;;3.55;2.15;;;4.60;99.90;;;;;;5025147;28;20245;-84
2022/04/19 01:59:59;;;;;;;2.60;1.97;;;4.70;99.90;;;;;;5040775;28;20275;-81
2022/04/19 02:02:25;;;;;;;2.45;2.00;;;4.40;99.90;;;;;;5040968;28;20894;-81
2022/04/19 02:04:50;;;;;;;3.87;2.30;;;4.40;99.90;;;;;;5041870;28;20212;-82
2022/04/19 02:07:16;;;;;;;3.50;2.80;;;4.40;99.90;;;;;;5042022;28;20790;-82
2022/04/19 02:09:42;;;;;;;3.93;3.00;;;;;;;;;;5042394;28;20181;-84
2022/04/19 02:12:09;;;;;;;5.03;2.80;;;4.80;99.90;;;;;;5043840;28;20582;-86
2022/04/19 02:14:34;;;;;;;2.95;2.25;;;4.40;99.90;;;;;;5034954;28;20440;-84
2022/04/19 02:17:00;;;;;;;6.30;1.83;;;;;;;;;;5032645;28;20222;-86
2022/04/19 02:19:26;;;;;;;3.85;1.60;;;4.30;99.90;;;;;;5034174;28;20183;-84
2022/04/19 02:21:52;;;;;;;6.03;2.60;;;4.30;99.90;;;;;;5028176;28;20284;-84
2022/04/19 02:24:17;;;;;;;3.07;2.10;;;4.30;99.90;;;;;;5034700;28;20246;-84
2022/04/19 02:26:43;;;;;;;3.00;1.70;;;4.30;99.90;;;;;;5034448;28;20995;-86
2022/04/19 02:29:08;;;;;;;4.07;2.10;;;4.40;99.90;;;;;;5038941;28;20177;-87
2022/04/19 02:31:35;;;;;;;3.93;2.50;;;;;;;;;;5040645;28;20197;-85
2022/04/19 02:34:05;;;;;;;5.43;2.03;;;4.20;99.90;;;;;;5033733;28;20173;-85
2022/04/19 02:36:31;;;;;;;2.47;2.10;;;4.00;99.90;;;;;;5031297;28;20177;-86
2022/04/19 02:38:59;;;;;;;4.73;2.43;;;;;;;;;;5032836;28;20184;-84
2022/04/19 02:41:25;;;;;;;2.80;2.22;;;3.90;99.90;;;;;;5034861;28;20204;-87
2022/04/19 02:43:50;;;;;;;3.78;2.10;;;3.80;99.90;;;;;;5029441;28;20573;-84
2022/04/19 02:46:16;;;;;;;3.17;2.43;;;3.80;99.90;;;;;;5030554;28;20181;-86
2022/04/19 02:48:42;;;;;;;4.27;2.47;;;3.90;99.90;;;;;;5026431;28;20746;-85
2022/04/19 02:51:08;;;;;;;4.13;2.80;;;;;;;;;;5043389;28;20223;-85
2022/04/19 02:53:34;;;;;;;3.92;3.00;;;3.90;99.90;;;;;;5023685;28;20515;-88
2022/04/19 02:56:04;;;;;;;2.17;1.97;;;4.00;99.90;;;;;;5033907;28;20217;-87
2022/04/19 02:58:30;;;;;;;3.53;2.15;;;3.90;99.90;;;;;;5029680;28;20213;-85
2022/04/19 03:00:56;;;;;;;3.97;2.57;;;;;;;;;;5039988;28;20582;-87
2022/04/19 03:03:22;;;;;;;4.97;3.70;;;;;;;;;;5024301;28;20196;-85
2022/04/19 03:05:48;;;;;;;4.60;3.17;;;;;;;;;;5040694;28;20423;-83
2022/04/19 03:08:14;;;;;;;6.57;4.20;;;;;;;;;;5039201;28;20181;-85
2022/04/19 03:10:40;;;;;;;4.35;3.55;;;3.90;99.90;;;;;;5045232;28;20455;-82
2022/04/19 03:13:05;;;;;;;8.20;2.77;;;3.90;99.90;;;;;;5044893;28;20182;-83
2022/04/19 03:15:34;;;;;;;6.43;3.00;;;;;;;;;;5045339;28;20939;-83
2022/04/19 03:18:00;;;;;;;3.80;3.25;;;3.90;99.90;;;;;;5026694;28;20645;-84
2022/04/19 03:20:26;;;;;;;4.00;3.13;;;3.80;99.90;;;;;;5035158;28;20201;-82
2022/04/19 03:28:20;;;;;;;4.75;3.17;;;;;;;;;;5046889;28;20665;-83
2022/04/19 03:30:46;;;;;;;4.37;3.37;;;;;;;;;;5027189;28;20192;-81
2022/04/19 03:33:12;;;;;;;3.97;2.70;;;;;;;;;;5029970;28;20447;-83
2022/04/19 03:35:38;;;;;;;6.15;3.20;;;3.60;99.90;;;;;;5048466;28;20961;-82
2022/04/19 03:38:05;;;;;;;5.18;4.13;;;3.60;99.90;;;;;;5033582;28;20243;-79
2022/04/19 03:40:30;;;;;;;7.30;3.90;;;3.50;99.90;;;;;;5048563;28;20200;-82
2022/04/19 03:42:56;;;;;;;6.70;3.70;;;;;;;;;;5037962;28;20182;-84
2022/04/19 03:45:22;;;;;;;4.50;3.55;;;3.60;99.90;;;;;;5053202;28;20201;-84
2022/04/19 03:47:49;;;;;;;4.00;2.97;;;;;;;;;;5033732;28;20247;-85
2022/04/19 03:50:16;;;;;;;4.70;3.20;;;3.60;99.90;;;;;;5030929;28;20462;-82
2022/04/19 03:52:42;;;;;;;7.63;4.30;;;3.60;99.90;;;;;;5032045;28;20243;-86
2022/04/19 03:55:08;;;;;;;4.97;3.78;;;5.80;99.90;;;;;;5033168;28;20188;-84
2022/04/19 03:57:34;;;;;;;8.45;4.28;;;3.70;99.90;;;;;;5039360;28;20243;-84
2022/04/19 04:00:00;;;;;;;5.30;3.90;;;3.60;99.90;;;;;;5039657;28;20272;-85
2022/04/19 04:02:26;;;;;;;5.93;3.00;;;3.60;99.90;;;;;;5029154;28;20181;-81
2022/04/19 04:04:52;;;;;;;7.85;3.35;;;3.50;99.90;;;;;;5038301;28;20288;-84
2022/04/19 04:07:18;;;;;;;6.70;4.43;;;;;;;;;;5054522;28;20205;-80
2022/04/19 04:09:43;;;;;;;7.00;3.03;;;3.40;99.90;;;;;;5038313;28;20188;-84
2022/04/19 04:12:14;;;;;;;6.83;3.60;;;3.50;99.90;;;;;;5025767;28;20443;-82
2022/04/19 04:14:41;;;;;;;4.15;3.30;;;3.40;99.90;;;;;;5035858;28;21044;-83
2022/04/19 04:17:07;;;;;;;6.18;3.80;;;3.40;99.90;;;;;;5036830;28;20173;-86
2022/04/19 04:19:33;;;;;;;5.90;4.95;;;3.30;99.90;;;;;;5033094;28;20195;-86
2022/04/19 04:21:59;;;;;;;7.85;5.28;;;;;;;;;;5045738;28;20205;-85
2022/04/19 04:24:25;;;;;;;4.53;3.80;;;3.20;99.90;;;;;;5025428;28;20197;-83
2022/04/19 04:26:51;;;;;;;5.83;3.60;;;;;;;;;;5047082;28;20181;-78
2022/04/19 04:29:16;;;;;;;7.43;4.10;;;3.20;99.90;;;;;;5039924;28;20192;-82
2022/04/19 04:31:42;;;;;;;4.00;3.60;;;3.20;99.90;;;;;;5048895;28;20999;-81
2022/04/19 04:34:08;;;;;;;5.70;3.60;;;6.60;99.90;;;;;;5040143;28;20626;-85
2022/04/19 04:36:33;;;;;;;5.13;4.00;;;3.20;99.90;;;;;;5030428;28;20185;-82
2022/04/19 04:38:59;;;;;;;4.60;3.23;;;3.20;99.90;;;;;;5039196;28;20444;-81
2022/04/19 04:41:25;;;;;;;3.87;3.33;;;2.30;99.90;;;;;;5040396;28;20476;-82
2022/04/19 04:43:50;;;;;;;6.17;3.80;;;3.20;99.90;;;;;;5031028;28;20209;-81
2022/04/19 04:51:49;;;;;;;4.15;3.25;;;4.60;99.90;;;;;;5045872;28;20215;-84
2022/04/19 04:54:15;;;;;;;3.73;3.03;;;;;;;;;;5031297;28;20181;-83
2022/04/19 04:56:41;;;;;;;3.90;2.80;;;6.30;99.90;;;;;;5041234;28;20165;-81
2022/04/19 04:59:06;;;;;;;3.60;3.20;;;7.50;99.90;;;;;;5043217;28;20251;-83
2022/04/19 05:01:32;;;;;;;2.43;2.23;;;;;;;;;;5040103;28;21841;-81
2022/04/19 05:03:57;;;;;;;6.33;4.50;;;10.20;99.90;;;;;;5043187;28;20224;-84
2022/04/19 05:06:23;;;;;;;5.37;3.67;;;10.70;99.90;;;;;;5027795;28;20485;-82
2022/04/19 05:08:49;;;;;;;4.03;3.47;;;9.90;99.90;;;;;;5034789;28;20185;-83
2022/04/19 05:11:15;;;;;;;7.10;3.90;;;9.80;99.90;;;;;;5044203;28;20181;-84
2022/04/19 05:13:41;;;;;;;3.85;2.90;;;10.40;99.90;;;;;;5024932;28;20181;-82
2022/04/19 05:16:06;;;;;;;3.70;3.10;;;11.60;99.90;;;;;;5033470;28;20429;-85
2022/04/19 05:18:32;;;;;;;4.80;3.13;;;12.70;99.90;;;;;;5028638;28;20805;-82
2022/04/19 05:20:57;;;;;;;5.00;3.30;;;14.20;99.90;;;;;;5034658;28;20209;-80
2022/04/19 05:23:23;;;;;;;6.93;4.30;;;15.90;99.90;;;;;;5025066;28;20192;-80
2022/04/19 05:25:49;;;;;;;8.10;3.53;;;16.00;95.70;;;;;;5043835;28;20649;-81
2022/04/19 05:28:14;;;;;;;5.57;4.13;;;18.60;96.20;;;;;;5049405;28;20189;-83
2022/04/19 05:30:40;;;;;;;5.20;4.50;;;16.30;95.50;;;;;;5029080;28;20181;-81
2022/04/19 05:33:05;;;;;;;5.70;3.60;;;17.50;91.70;;;;;;5027264;28;20189;-79
2022/04/19 05:35:32;;;;;;;4.87;4.40;;;17.30;88.30;;;;;;5023820;28;20177;-86
2022/04/19 05:37:59;;;;;;;4.80;4.27;;;19.00;85.30;;;;;;5027065;28;20180;-85
2022/04/19 05:40:27;;;;;;;6.43;4.33;;;19.10;85.20;;;;;;5021667;28;20488;-83
2022/04/19 05:42:53;;;;;;;5.80;4.57;;;21.80;81.70;;;;;;5038729;28;20817;-85
2022/04/19 05:45:19;;;;;;;6.13;4.43;;;21.40;73.40;;;;;;5023767;28;20466;-86
2022/04/19 05:47:45;;;;;;;4.57;3.93;;;;;;;;;;5045084;28;20201;-87
2022/04/19 05:50:11;;;;;;;7.27;4.20;;;;;;;;;;5035243;28;20735;-86
2022/04/19 05:52:37;;;;;;;5.47;4.23;;;;;;;;;;5034891;28;20455;-86
2022/04/19 05:55:04;;;;;;;6.10;4.67;;;25.10;57.80;;;;;;5035009;28;20853;-85
2022/04/19 05:57:30;;;;;;;5.37;4.37;;;27.00;55.60;;;;;;5031918;28;20436;-86
2022/04/19 05:59:56;;;;;;;5.03;4.53;;;;;;;;;;5036950;28;20958;-86
2022/04/19 06:05:08;;;;;;;6.63;6.00;;;30.10;43.70;;;;;;5047365;28;20490;-85
2022/04/19 06:07:43;;;;;;;6.87;6.13;;;32.00;39.20;;;;;;5026457;28;20517;-86
2022/04/19 06:10:09;;;;;;;6.53;5.93;;;32.00;39.60;;;;;;5029392;28;20542;-87
2022/04/19 06:12:34;;;;;;;7.47;6.77;;;32.00;37.40;;;;;;5025446;28;20652;-87
2022/04/19 06:15:00;;;;;;;9.40;6.20;;;29.30;36.70;;;;;;5029468;28;20454;-85
2022/04/19 06:17:30;;;;;;;7.50;6.70;;;;;;;;;;5030905;28;20186;-89
2022/04/19 06:19:56;;;;;;;10.03;6.27;;;28.80;38.40;;;;;;5032880;28;20188;-86
2022/04/19 06:22:21;;;;;;;6.97;6.43;;;28.90;39.10;;;;;;5034442;28;20420;-86
2022/04/19 06:24:47;;;;;;;6.83;6.33;;;;;;;;;;5030227;28;20449;-83
2022/04/19 06:27:13;;;;;;;9.63;6.60;;;28.10;38.00;;;;;;5033523;28;20243;-82
2022/04/19 06:29:39;;;;;;;9.00;6.80;;;;;;;;;;5026500;28;20481;-86
2022/04/19 06:32:05;;;;;;;7.53;6.90;;;28.10;38.10;;;;;;5035676;28;20230;-87
2022/04/19 06:34:31;;;;;;;6.27;5.83;;;28.30;38.90;;;;;;5035303;28;20409;-86
2022/04/19 06:36:57;;;;;;;8.93;7.10;;;28.10;37.80;;;;;;5035815;28;20541;-86
2022/04/19 06:39:22;;;;;;;9.10;6.50;;;28.30;37.60;;;;;;5035766;28;20446;-87
2022/04/19 06:41:51;;;;;;;8.10;7.30;;;28.60;38.30;;;;;;5018059;28;20199;-86
2022/04/19 06:44:18;;;;;;;7.30;6.70;;;;;;;;;;5038369;28;20185;-88
2022/04/19 06:46:47;;;;;;;7.47;6.77;;;;;;;;;;5040116;28;20407;-85
2022/04/19 06:49:13;;;;;;;8.10;7.40;;;;;;;;;;5040641;28;20407;-88
2022/04/19 06:51:39;;;;;;;7.60;7.00;;;;;;;;;;5040071;28;20432;-88
2022/04/19 06:54:07;;;;;;;8.57;7.67;;;;;;;;;;5039799;28;20418;-88
2022/04/19 06:56:33;;;;;;;7.80;7.00;;;29.50;37.90;;;;;;5040381;28;20404;-87
2022/04/19 06:59:00;;;;;;;7.77;7.10;;;;;;;;;;5022370;28;20413;-86
2022/04/19 07:01:26;;;;;;;8.07;7.37;;;;;;;;;;5021590;28;20440;-88
2022/04/19 07:03:52;;;;;;;8.30;7.60;;;;;;;;;;5021277;28;20496;-88
2022/04/19 07:06:18;;;;;;;7.23;6.67;;;30.90;36.10;;;;;;5020891;28;20414;-87
2022/04/19 07:08:44;;;;;;;10.13;9.13;;;;;;;;;;5039484;28;20517;-88
2022/04/19 07:11:12;;;;;;;9.93;9.17;;;32.50;33.30;;;;;;5020625;28;20447;-88
2022/04/19 07:13:38;;;;;;;10.03;9.30;;;;;;;;;;5021058;28;20418;-87
2022/04/19 07:16:05;;;;;;;10.20;9.20;;;30.30;33.80;;;;;;5038881;28;20408;-87
2022/04/19 07:18:31;;;;;;;8.80;8.03;;;;;;;;;;5038745;28;20410;-84
2022/04/19 07:29:12;;;;;;;9.13;8.40;;;32.20;35.20;;;;;;5041763;28;20912;-86
2022/04/19 07:31:38;;;;;;;10.30;9.50;;;;;;;;;;5023786;28;20436;-87
2022/04/19 07:34:04;;;;;;;9.50;8.70;;;31.10;34.20;;;;;;5024738;28;20425;-88
2022/04/19 07:36:29;;;;;;;10.70;9.80;;;29.70;35.90;;;;;;5041925;28;20470;-84
2022/04/19 07:38:57;;;;;;;9.57;8.97;;;;;;;;;;5041303;28;20176;-86
2022/04/19 07:41:23;;;;;;;9.90;9.00;;;;;;;;;;5024396;28;20209;-87
2022/04/19 07:43:50;;;;;;;9.00;8.20;;;;;;;;;;5041868;28;20453;-87
2022/04/19 07:46:16;;;;;;;10.13;9.23;;;;;;;;;;5024850;28;20655;-85
2022/04/19 07:48:45;;;;;;;8.70;7.90;;;29.00;37.60;;;;;;5024909;28;20428;-84
2022/04/19 07:51:12;;;;;;;9.33;8.53;;;29.00;38.10;;;;;;5041955;28;20801;-88
2022/04/19 07:53:38;;;;;;;9.03;8.33;;;;;;;;;;5041652;28;20409;-86
2022/04/19 07:56:04;;;;;;;10.70;9.70;;;30.60;34.60;;;;;;5042913;28;20479;-87
2022/04/19 07:58:30;;;;;;;9.23;8.30;;;;;;;;;;5042612;28;20516;-86
2022/04/19 08:00:55;;;;;;;10.43;9.47;;;28.80;35.20;;;;;;5024251;28;20478;-87
2022/04/19 08:03:21;;;;;;;9.77;8.87;;;;;;;;;;5041925;28;20491;-86
2022/04/19 08:05:47;;;;;;;8.00;7.30;;;;;;;;;;5041567;28;20256;-84
2022/04/19 08:08:13;;;;;;;8.67;7.97;;;28.80;36.50;;;;;;5024669;28;20961;-87
2022/04/19 08:10:39;;;;;;;9.33;8.57;;;;;;;;;;5042074;28;20460;-83
2022/04/19 08:13:05;;;;;;;8.70;7.97;;;29.00;34.40;;;;;;5023636;28;20170;-84
2022/04/19 08:15:31;;;;;;;9.23;8.53;;;27.90;35.00;;;;;;5023813;28;20459;-86
2022/04/19 08:17:57;;;;;;;9.50;8.50;;;;;;;;;;5042102;28;20175;-85
2022/04/19 08:20:24;;;;;;;9.23;8.53;;;;;;;;;;5024076;28;20930;-85
2022/04/19 08:22:49;;;;;;;9.87;9.07;;;29.30;34.50;;;;;;5024047;28;20914;-85
2022/04/19 08:25:15;;;;;;;10.83;8.50;;;29.60;35.40;;;;;;5024278;28;20466;-84
2022/04/19 08:27:45;;;;;;;10.03;8.10;;;28.90;34.20;;;;;;5023256;28;20179;-88
2022/04/19 08:30:15;;;;;;;10.50;8.57;;;29.00;34.90;;;;;;5022827;28;20245;-88
2022/04/19 08:32:42;;;;;;;10.57;9.57;;;28.70;33.60;;;;;;5023507;28;20464;-87
2022/04/19 08:35:09;;;;;;;9.87;8.97;;;;;;;;;;5023181;28;20836;-86
2022/04/19 08:37:35;;;;;;;9.93;9.07;;;27.80;33.20;;;;;;5022887;28;20409;-86
2022/04/19 08:40:03;;;;;;;9.83;9.13;;;28.80;32.00;;;;;;5039748;28;20416;-86
2022/04/19 08:42:29;;;;;;;11.20;10.20;;;;;;;;;;5022577;28;20456;-87
2022/04/19 08:45:06;;;;;;;11.27;10.37;;;29.70;30.30;;;;;;5041411;28;20813;-86
2022/04/19 08:47:36;;;;;;;10.17;9.33;;;28.40;31.20;;;;;;5042000;28;20391;-86
2022/04/19 08:50:06;;;;;;;11.70;10.60;;;25.90;32.20;;;;;;5041046;28;20411;-85
2022/04/19 08:52:32;;;;;;;9.57;8.67;;;;;;;;;;5040513;28;20880;-85
2022/04/19 08:57:43;;;;;;;11.00;9.93;;;28.90;30.80;;;;;;5039092;28;20430;-85
2022/04/19 09:00:10;;;;;;;11.20;10.10;;;28.50;30.50;;;;;;5038649;28;20430;-85
2022/04/19 09:02:37;;;;;;;10.53;9.53;;;;;;;;;;5036226;28;20424;-84
2022/04/19 09:05:23;;;;;;;10.57;9.67;;;26.90;30.80;;;;;;5018990;28;20629;-84
2022/04/19 09:07:52;;;;;;;9.70;8.87;;;27.00;33.10;;;;;;5020324;28;20417;-85
2022/04/19 09:10:35;;;;;;;10.77;9.60;;;28.00;33.70;;;;;;5020548;28;21217;-84
2022/04/19 09:13:08;;;;;;;12.33;10.03;;;27.90;31.50;;;;;;5039736;28;20475;-85
2022/04/19 09:15:44;;;;;;;18.90;14.53;;;27.90;31.80;;;;;;5038161;28;20419;-86
2022/04/19 09:18:29;;;;;;;11.90;10.27;;;28.80;33.60;;;;;;5036657;28;20395;-86
2022/04/19 09:20:56;;;;;;;11.27;10.13;;;;;;;;;;5036251;28;20435;-87
2022/04/19 09:23:22;;;;;;;11.37;10.37;;;;;;;;;;5036874;28;20417;-85
2022/04/19 09:26:05;;;;;;;11.80;10.70;;;27.90;32.40;;;;;;5035652;28;20455;-86
2022/04/19 09:28:34;;;;;;;11.73;10.43;;;;;;;;;;5035432;28;20494;-85
2022/04/19 09:31:00;;;;;;;10.77;9.87;;;27.90;33.00;;;;;;5035487;28;20478;-87
2022/04/19 09:33:30;;;;;;;11.40;10.37;;;27.10;33.10;;;;;;5034699;28;20401;-87
2022/04/19 09:36:02;;;;;;;45.27;14.67;;;25.50;35.30;;;;;;5035099;28;20395;-84
2022/04/19 09:38:43;;;;;;;12.23;10.13;;;27.70;38.00;;;;;;5033910;28;20435;-86
2022/04/19 09:41:28;;;;;;;123.50;19.93;;;28.40;34.30;;;;;;5016661;28;20433;-84
2022/04/19 09:44:16;;;;;;;11.50;10.33;;;29.10;32.90;;;;;;5035658;28;20449;-86
2022/04/19 09:47:04;;;;;;;11.27;10.20;;;29.60;31.70;;;;;;5019350;28;20446;-82
2022/04/19 09:49:51;;;;;;;14.10;11.00;;;30.40;31.20;;;;;;5034889;28;20411;-85
2022/04/19 09:52:22;;;;;;;11.90;10.80;;;31.00;30.10;;;;;;5035329;28;20776;-88
2022/04/19 09:55:05;;;;;;;11.27;10.27;;;31.30;29.50;;;;;;5035773;28;20406;-85
2022/04/19 09:57:33;;;;;;;12.37;11.27;;;30.10;31.80;;;;;;5036708;28;20398;-87
2022/04/19 09:59:59;;;;;;;10.87;9.97;;;29.20;29.70;;;;;;5035988;28;20397;-86
2022/04/19 10:08:13;;;;;;;11.03;8.60;;;25.40;35.40;;;;;;5036577;28;20405;-88
2022/04/19 10:10:40;;;;;;;11.37;8.50;;;24.50;35.70;;;;;;5018205;28;20440;-88
2022/04/19 10:13:06;;;;;;;15.23;10.30;;;25.20;35.70;;;;;;5035551;28;20391;-88
2022/04/19 10:15:33;;;;;;;10.43;9.43;;;25.10;35.00;;;;;;5034337;28;20455;-87
2022/04/19 10:17:59;;;;;;;11.57;10.40;;;25.30;35.30;;;;;;5016906;28;20405;-87
2022/04/19 10:20:31;;;;;;;13.20;9.43;;;25.00;34.40;;;;;;5016270;28;20447;-86
2022/04/19 10:23:02;;;;;;;17.27;9.07;;;23.40;36.30;;;;;;5034793;28;20624;-86
2022/04/19 10:25:46;;;;;;;12.03;9.20;;;20.50;39.30;;;;;;5017811;28;20462;-86
2022/04/19 10:28:25;;;;;;;12.52;10.07;;;20.10;37.50;;;;;;5017965;28;20583;-87
2022/04/19 10:30:53;;;;;;;9.20;8.20;;;20.10;38.00;;;;;;5033802;28;20190;-86
2022/04/19 10:33:48;;;;;;;8.00;7.30;;;19.30;37.20;;;;;;5034875;28;20409;-86
2022/04/19 10:36:38;;;;;;;7.53;6.83;;;19.20;37.10;;;;;;5016538;28;20959;-85
2022/04/19 10:39:14;;;;;;;9.97;8.23;;;18.80;35.90;;;;;;5017909;28;20559;-85
2022/04/19 10:41:52;;;;;;;10.00;8.17;;;18.80;37.50;;;;;;5017328;28;20431;-83
2022/04/19 10:44:28;;;;;;;9.60;8.33;;;18.70;39.00;;;;;;5038379;28;20467;-86
2022/04/19 10:47:03;;;;;;;10.43;8.17;;;18.30;40.20;;;;;;5038881;28;20411;-84
2022/04/19 10:49:29;;;;;;;8.40;6.87;;;18.00;39.90;;;;;;5020375;28;20477;-84
2022/04/19 10:52:00;;;;;;;11.83;7.50;;;17.90;41.10;;;;;;5019897;28;20440;-85
2022/04/19 10:55:04;;;;;;;8.63;7.53;;;18.00;41.70;;;;;;5020411;28;20174;-84
2022/04/19 11:00:35;;;;;;;10.00;7.43;;;17.50;42.00;;;;;;5037744;28;20452;-85
2022/04/19 11:03:11;;;;;;;13.93;7.70;;;17.90;42.90;;;;;;5019727;28;20536;-84
2022/04/19 11:05:52;;;;;;;12.03;8.83;;;18.40;41.00;;;;;;5020505;28;20468;-86
2022/04/19 11:08:26;;;;;;;9.30;7.73;;;18.60;42.40;;;;;;5019525;28;20455;-84
2022/04/19 11:10:54;;;;;;;12.60;7.97;;;18.40;41.80;;;;;;5036907;28;21181;-88
2022/04/19 11:13:26;;;;;;;11.60;8.10;;;18.40;42.20;;;;;;5037117;28;20418;-86
2022/04/19 11:15:58;;;;;;;10.73;7.90;;;18.60;42.90;;;;;;5034917;28;21150;-85
2022/04/19 11:18:29;;;;;;;13.23;7.87;;;18.50;42.10;;;;;;5016943;28;20413;-84
2022/04/19 11:20:58;;;;;;;9.50;7.50;;;18.00;41.00;;;;;;5034286;28;20432;-84
2022/04/19 11:23:29;;;;;;;10.30;7.23;;;17.90;41.90;;;;;;5015914;28;20427;-84
2022/04/19 11:25:56;;;;;;;7.77;6.90;;;18.00;43.90;;;;;;5015663;28;20464;-82
2022/04/19 11:28:21;;;;;;;8.33;6.30;;;18.10;43.80;;;;;;5034665;28;20413;-84
2022/04/19 11:30:50;;;;;;;8.03;6.03;;;18.20;42.30;;;;;;5019892;28;20979;-82
2022/04/19 11:33:26;;;;;;;9.50;7.20;;;18.40;40.50;;;;;;5019681;28;20178;-83
2022/04/19 11:36:00;;;;;;;9.13;8.20;;;18.50;41.40;;;;;;5038416;28;20502;-83
2022/04/19 11:38:27;;;;;;;9.50;7.00;;;20.00;42.20;;;;;;5020245;28;20412;-85
2022/04/19 11:49:25;;;;;;;8.47;7.00;;;18.60;41.60;;;;;;5037964;28;20428;-85
2022/04/19 11:51:53;;;;;;;8.40;7.17;;;18.80;42.30;;;;;;5019829;28;20436;-83
2022/04/19 11:54:21;;;;;;;8.30;6.53;;;19.00;40.50;;;;;;5037858;28;20412;-86
2022/04/19 11:57:07;;;;;;;7.30;6.70;;;19.00;41.00;;;;;;5018806;28;20409;-83
2022/04/19 11:59:33;;;;;;;7.93;5.97;;;18.90;40.50;;;;;;5019557;28;20455;-86
2022/04/19 12:02:00;;;;;;;8.27;7.30;;;18.80;42.90;;;;;;5019537;28;20444;-84
2022/04/19 12:04:26;;;;;;;9.70;7.30;;;18.80;40.10;;;;;;5037093;28;20456;-87
2022/04/19 12:07:03;;;;;;;8.60;7.27;;;19.10;41.80;;;;;;5037208;28;21107;-84
2022/04/19 12:09:30;;;;;;;11.03;7.07;;;18.60;42.00;;;;;;5036367;28;20853;-84
2022/04/19 12:11:59;;;;;;;7.33;6.63;;;18.80;43.20;;;;;;5037496;28;20429;-83
2022/04/19 12:14:32;;;;;;;8.93;7.13;;;18.60;43.60;;;;;;5036767;28;20405;-84
2022/04/19 12:17:06;;;;;;;7.47;6.60;;;18.70;42.10;;;;;;5036400;28;20441;-84
2022/04/19 12:19:39;;;;;;;9.50;6.57;;;18.70;42.50;;;;;;5036933;28;20412;-84
2022/04/19 12:22:22;;;;;;;8.17;7.30;;;19.00;41.40;;;;;;5018800;28;20444;-86
2022/04/19 12:24:53;;;;;;;8.87;7.23;;;19.10;42.30;;;;;;5020129;28;20566;-84
2022/04/19 12:27:27;;;;;;;8.67;7.70;;;19.20;42.90;;;;;;5018198;28;20813;-86
2022/04/19 12:29:58;;;;;;;8.10;7.03;;;19.30;42.60;;;;;;5018617;28;20413;-84
2022/04/19 12:32:24;;;;;;;10.60;7.27;;;19.30;43.20;;;;;;5036525;28;20377;-83
2022/04/19 12:34:50;;;;;;;8.70;7.10;;;19.30;42.50;;;;;;5037355;28;20417;-87
2022/04/19 12:37:18;;;;;;;12.33;7.97;;;19.20;43.10;;;;;;5036497;28;20413;-85
2022/04/19 12:39:58;;;;;;;8.50;7.40;;;19.00;43.30;;;;;;5029058;23;20506;-82
2022/04/19 12:42:24;;;;;;;8.60;6.60;;;19.20;43.30;;;;;;4981540;28;20441;-78
2022/04/19 12:45:10;;;;;;;7.83;6.73;;;19.40;42.50;;;;;;5002489;28;20609;-76
2022/04/19 12:47:37;;;;;;;8.73;6.93;;;19.50;43.80;;;;;;5016888;28;20459;-77
2022/04/19 12:50:13;;;;;;;9.17;7.47;;;19.30;42.80;;;;;;5007115;28;20444;-80
2022/04/19 12:52:41;;;;;;;7.40;6.60;;;19.20;41.90;;;;;;5019592;28;20519;-80
2022/04/19 12:55:09;;;;;;;8.53;6.73;;;20.30;43.20;;;;;;5005067;28;20456;-79
2022/04/19 12:57:38;;;;;;;8.13;7.33;;;18.70;44.30;;;;;;5005939;28;20488;-79
2022/04/19 13:00:05;;;;;;;7.77;6.57;;;19.00;44.80;;;;;;4998816;28;20436;-82
2022/04/19 13:02:31;;;;;;;9.70;6.37;;;19.20;42.00;;;;;;5018173;28;20462;-83
2022/04/19 13:04:57;;;;;;;6.90;6.03;;;19.40;43.90;;;;;;5012743;28;20468;-79
2022/04/19 13:12:43;;;;;;;9.00;6.47;;;19.40;42.50;;;;;;4972842;28;20793;-87
2022/04/19 13:15:09;;;;;;;8.27;7.47;;;19.30;45.70;;;;;;4980422;28;20443;-87
2022/04/19 13:17:39;;;;;;;8.43;6.53;;;19.30;42.90;;;;;;4970270;28;20455;-88
2022/04/19 13:20:05;;;;;;;5.80;5.30;;;19.60;43.30;;;;;;4972004;28;21219;-87
2022/04/19 13:22:31;;;;;;;7.00;6.30;;;19.90;43.10;;;;;;4976409;28;20450;-85
2022/04/19 13:25:00;;;;;;;8.90;6.57;;;20.30;42.00;;;;;;4978596;28;20462;-89
2022/04/19 13:27:26;;;;;;;9.43;6.80;;;20.30;42.50;;;;;;4975441;28;20435;-87
2022/04/19 13:29:52;;;;;;;6.20;5.60;;;20.10;42.50;;;;;;4982248;28;20494;-84
2022/04/19 13:32:21;;;;;;;7.43;6.57;;;20.10;43.30;;;;;;4984970;28;20510;-84
2022/04/19 13:34:47;;;;;;;7.60;6.70;;;20.30;43.80;;;;;;4975730;28;20442;-86
2022/04/19 13:37:15;;;;;;;6.63;6.00;;;20.50;43.50;;;;;;4975614;28;20453;-86
2022/04/19 13:39:40;;;;;;;8.50;6.90;;;20.70;42.70;;;;;;4978680;28;20207;-85
2022/04/19 13:42:06;;;;;;;9.23;6.30;;;21.40;43.60;;;;;;4978637;28;20458;-84
2022/04/19 13:44:32;;;;;;;8.33;7.00;;;21.10;42.80;;;;;;4977299;28;20304;-85
2022/04/19 13:46:57;;;;;;;7.10;6.40;;;21.10;42.40;;;;;;4984903;28;20200;-85
2022/04/19 13:49:24;;;;;;;7.73;6.20;;;19.80;42.90;;;;;;4976554;28;20183;-84
2022/04/19 13:51:50;;;;;;;5.20;4.80;;;19.80;42.90;;;;;;4981401;28;20257;-86
2022/04/19 13:54:18;;;;;;;7.73;5.67;;;19.40;44.20;;;;;;4981298;28;20950;-85
2022/04/19 13:56:45;;;;;;;7.07;6.40;;;19.20;45.90;;;;;;4973422;28;20182;-89
2022/04/19 13:59:12;;;;;;;6.33;5.70;;;18.70;47.90;;;;;;4976665;28;20760;-89
2022/04/19 14:01:38;;;;;;;8.57;5.83;;;18.70;48.80;;;;;;4972844;28;21052;-90